sensor_id;sensor_type;location;lat;lon;timestamp;pressure;altitude;pressure_sealevel;temperature;humidity
26859;BME280;14429;48.346;16.338;2023-03-23T00:02:04;99358.59;;;16.73;47.35
26859;BME280;14429;48.346;16.338;2023-03-23T00:04:29;99358.03;;;16.69;47.50
26859;BME280;14429;48.346;16.338;2023-03-23T00:06:55;99355.59;;;16.49;47.48
26859;BME280;14429;48.346;16.338;2023-03-23T00:09:21;99356.56;;;16.57;47.67
26859;BME280;14429;48.346;16.338;2023-03-23T00:11:47;99364.41;;;16.68;47.38
26859;BME280;14429;48.346;16.338;2023-03-23T00:14:12;99353.63;;;16.68;47.19
26859;BME280;14429;48.346;16.338;2023-03-23T00:16:39;99356.94;;;16.62;47.46
26859;BME280;14429;48.346;16.338;2023-03-23T00:19:07;99350.84;;;16.60;47.45
26859;BME280;14429;48.346;16.338;2023-03-23T00:21:35;99357.84;;;16.27;46.45
26859;BME280;14429;48.346;16.338;2023-03-23T00:24:03;99360.34;;;16.38;47.96
26859;BME280;14429;48.346;16.338;2023-03-23T00:26:30;99365.25;;;16.42;48.00
26859;BME280;14429;48.346;16.338;2023-03-23T00:28:56;99359.31;;;15.48;45.15
26859;BME280;14429;48.346;16.338;2023-03-23T00:31:21;99363.22;;;15.82;49.18
26859;BME280;14429;48.346;16.338;2023-03-23T00:33:47;99357.19;;;16.06;48.94
26859;BME280;14429;48.346;16.338;2023-03-23T00:36:13;99353.47;;;16.26;48.41
26859;BME280;14429;48.346;16.338;2023-03-23T00:38:40;99354.28;;;16.36;48.00
26859;BME280;14429;48.346;16.338;2023-03-23T00:41:05;99353.97;;;16.39;48.00
26859;BME280;14429;48.346;16.338;2023-03-23T00:43:33;99360.03;;;16.41;47.82
26859;BME280;14429;48.346;16.338;2023-03-23T00:45:58;99356.50;;;16.40;47.82
26859;BME280;14429;48.346;16.338;2023-03-23T00:48:24;99363.03;;;16.38;47.85
26859;BME280;14429;48.346;16.338;2023-03-23T00:50:50;99358.81;;;16.35;47.88
26859;BME280;14429;48.346;16.338;2023-03-23T00:53:17;99357.97;;;16.35;47.95
26859;BME280;14429;48.346;16.338;2023-03-23T00:55:43;99356.25;;;16.34;47.96
26859;BME280;14429;48.346;16.338;2023-03-23T00:58:09;99350.56;;;16.37;47.90
26859;BME280;14429;48.346;16.338;2023-03-23T01:00:36;99351.13;;;16.40;47.63
26859;BME280;14429;48.346;16.338;2023-03-23T01:03:02;99352.25;;;16.38;47.80
26859;BME280;14429;48.346;16.338;2023-03-23T01:05:27;99348.59;;;16.39;47.66
26859;BME280;14429;48.346;16.338;2023-03-23T01:07:53;99342.66;;;16.35;47.78
26859;BME280;14429;48.346;16.338;2023-03-23T01:10:18;99338.41;;;16.33;47.63
26859;BME280;14429;48.346;16.338;2023-03-23T01:12:44;99336.19;;;16.28;47.97
26859;BME280;14429;48.346;16.338;2023-03-23T01:15:14;99345.09;;;16.29;47.95
26859;BME280;14429;48.346;16.338;2023-03-23T01:17:41;99343.41;;;16.28;47.78
26859;BME280;14429;48.346;16.338;2023-03-23T01:20:07;99346.09;;;16.28;47.85
26859;BME280;14429;48.346;16.338;2023-03-23T01:22:33;99342.69;;;16.26;47.92
26859;BME280;14429;48.346;16.338;2023-03-23T01:24:58;99348.06;;;16.26;47.64
26859;BME280;14429;48.346;16.338;2023-03-23T01:27:24;99342.41;;;16.29;47.70
26859;BME280;14429;48.346;16.338;2023-03-23T01:29:49;99341.00;;;16.25;47.85
26859;BME280;14429;48.346;16.338;2023-03-23T01:32:14;99339.31;;;16.24;47.94
26859;BME280;14429;48.346;16.338;2023-03-23T01:34:41;99335.38;;;16.18;47.92
26859;BME280;14429;48.346;16.338;2023-03-23T01:37:07;99342.31;;;16.21;47.84
26859;BME280;14429;48.346;16.338;2023-03-23T01:39:32;99338.06;;;16.18;47.76
26859;BME280;14429;48.346;16.338;2023-03-23T01:41:57;99339.63;;;16.21;47.63
26859;BME280;14429;48.346;16.338;2023-03-23T01:47:26;99334.81;;;16.15;47.67
26859;BME280;14429;48.346;16.338;2023-03-23T01:49:52;99325.22;;;16.13;47.91
26859;BME280;14429;48.346;16.338;2023-03-23T01:52:22;99323.22;;;16.15;47.72
26859;BME280;14429;48.346;16.338;2023-03-23T01:54:49;99325.78;;;16.16;47.70
26859;BME280;14429;48.346;16.338;2023-03-23T01:57:17;99323.09;;;16.16;47.85
26859;BME280;14429;48.346;16.338;2023-03-23T01:59:45;99324.34;;;16.12;47.82
26859;BME280;14429;48.346;16.338;2023-03-23T02:02:12;99322.06;;;16.08;47.79
26859;BME280;14429;48.346;16.338;2023-03-23T02:04:39;99322.06;;;16.08;47.96
26859;BME280;14429;48.346;16.338;2023-03-23T02:07:06;99321.97;;;16.09;47.79
26859;BME280;14429;48.346;16.338;2023-03-23T02:09:32;99321.81;;;16.11;47.75
26859;BME280;14429;48.346;16.338;2023-03-23T02:11:57;99325.06;;;16.05;47.90
26859;BME280;14429;48.346;16.338;2023-03-23T02:14:23;99325.06;;;16.05;47.90
26859;BME280;14429;48.346;16.338;2023-03-23T02:16:54;99320.84;;;16.02;47.88
26859;BME280;14429;48.346;16.338;2023-03-23T02:19:45;99325.09;;;15.95;48.14
26859;BME280;14429;48.346;16.338;2023-03-23T02:22:32;99336.53;;;15.97;47.99
26859;BME280;14429;48.346;16.338;2023-03-23T02:25:24;99337.09;;;16.01;47.77
26859;BME280;14429;48.346;16.338;2023-03-23T02:28:19;99338.09;;;16.00;47.85
26859;BME280;14429;48.346;16.338;2023-03-23T02:31:03;99322.13;;;15.98;47.77
26859;BME280;14429;48.346;16.338;2023-03-23T02:33:36;99330.88;;;16.00;47.99
26859;BME280;14429;48.346;16.338;2023-03-23T02:36:09;99328.63;;;15.96;47.88
26859;BME280;14429;48.346;16.338;2023-03-23T02:38:39;99334.88;;;15.96;48.07
26859;BME280;14429;48.346;16.338;2023-03-23T02:41:08;99340.25;;;15.96;47.75
26859;BME280;14429;48.346;16.338;2023-03-23T02:43:40;99346.22;;;15.91;48.04
26859;BME280;14429;48.346;16.338;2023-03-23T02:46:08;99339.13;;;15.90;47.99
26859;BME280;14429;48.346;16.338;2023-03-23T02:48:36;99338.44;;;15.88;48.05
26859;BME280;14429;48.346;16.338;2023-03-23T02:51:05;99344.50;;;15.90;47.92
26859;BME280;14429;48.346;16.338;2023-03-23T02:53:33;99341.97;;;15.88;47.90
26859;BME280;14429;48.346;16.338;2023-03-23T02:56:01;99340.28;;;15.87;47.96
26859;BME280;14429;48.346;16.338;2023-03-23T02:58:27;99348.19;;;15.89;47.87
26859;BME280;14429;48.346;16.338;2023-03-23T03:00:54;99337.44;;;15.89;47.87
26859;BME280;14429;48.346;16.338;2023-03-23T03:03:22;99346.50;;;15.88;47.80
26859;BME280;14429;48.346;16.338;2023-03-23T03:05:58;99348.47;;;15.86;47.82
26859;BME280;14429;48.346;16.338;2023-03-23T03:08:33;99343.44;;;15.83;48.16
26859;BME280;14429;48.346;16.338;2023-03-23T03:11:04;99345.16;;;14.62;45.81
26859;BME280;14429;48.346;16.338;2023-03-23T03:13:38;99343.81;;;15.14;49.24
26859;BME280;14429;48.346;16.338;2023-03-23T03:16:09;99340.66;;;15.37;49.12
26859;BME280;14429;48.346;16.338;2023-03-23T03:18:44;99341.53;;;15.47;48.57
26859;BME280;14429;48.346;16.338;2023-03-23T03:21:13;99349.72;;;15.37;48.83
26859;BME280;14429;48.346;16.338;2023-03-23T03:23:42;99346.72;;;15.58;48.44
26859;BME280;14429;48.346;16.338;2023-03-23T03:26:11;99344.31;;;15.55;48.60
26859;BME280;14429;48.346;16.338;2023-03-23T03:28:38;99338.09;;;15.64;48.29
26859;BME280;14429;48.346;16.338;2023-03-23T03:31:05;99341.19;;;15.69;48.17
26859;BME280;14429;48.346;16.338;2023-03-23T03:33:32;99351.78;;;15.70;47.91
26859;BME280;14429;48.346;16.338;2023-03-23T03:36:00;99342.88;;;15.70;48.01
26859;BME280;14429;48.346;16.338;2023-03-23T03:38:28;99355.31;;;15.71;47.99
26859;BME280;14429;48.346;16.338;2023-03-23T03:40:56;99349.38;;;15.67;48.13
26859;BME280;14429;48.346;16.338;2023-03-23T03:43:21;99344.31;;;15.64;48.14
26859;BME280;14429;48.346;16.338;2023-03-23T03:45:47;99332.72;;;15.64;48.00
26859;BME280;14429;48.346;16.338;2023-03-23T03:48:12;99339.06;;;15.63;48.19
26859;BME280;14429;48.346;16.338;2023-03-23T03:50:38;99342.31;;;15.66;48.00
26859;BME280;14429;48.346;16.338;2023-03-23T03:53:04;99337.78;;;15.67;47.92
26859;BME280;14429;48.346;16.338;2023-03-23T03:55:31;99341.19;;;15.69;48.02
26859;BME280;14429;48.346;16.338;2023-03-23T03:57:56;99344.31;;;15.55;48.04
26859;BME280;14429;48.346;16.338;2023-03-23T04:00:22;99346.91;;;14.82;47.92
26859;BME280;14429;48.346;16.338;2023-03-23T04:02:48;99349.19;;;15.24;48.96
26859;BME280;14429;48.346;16.338;2023-03-23T04:05:14;99345.47;;;15.43;48.57
26859;BME280;14429;48.346;16.338;2023-03-23T04:07:40;99348.94;;;15.08;48.46
26859;BME280;14429;48.346;16.338;2023-03-23T04:10:07;99345.22;;;15.28;48.58
26859;BME280;14429;48.346;16.338;2023-03-23T04:12:34;99352.53;;;15.44;48.42
26859;BME280;14429;48.346;16.338;2023-03-23T04:14:59;99345.34;;;15.36;48.61
26859;BME280;14429;48.346;16.338;2023-03-23T04:17:25;99347.88;;;15.46;48.32
26859;BME280;14429;48.346;16.338;2023-03-23T04:19:50;99347.28;;;15.52;48.20
26859;BME280;14429;48.346;16.338;2023-03-23T04:22:16;99346.75;;;15.39;48.34
26859;BME280;14429;48.346;16.338;2023-03-23T04:24:41;99335.88;;;15.50;48.16
26859;BME280;14429;48.346;16.338;2023-03-23T04:27:06;99343.19;;;15.58;47.98
26859;BME280;14429;48.346;16.338;2023-03-23T04:29:33;99344.03;;;15.58;47.90
26859;BME280;14429;48.346;16.338;2023-03-23T04:31:59;99349.13;;;15.61;47.75
26859;BME280;14429;48.346;16.338;2023-03-23T04:34:24;99354.94;;;13.25;46.52
26859;BME280;14429;48.346;16.338;2023-03-23T04:36:50;99353.59;;;14.30;51.00
26859;BME280;14429;48.346;16.338;2023-03-23T04:39:15;99355.38;;;14.87;49.79
26859;BME280;14429;48.346;16.338;2023-03-23T04:41:41;99358.50;;;15.10;49.13
26859;BME280;14429;48.346;16.338;2023-03-23T04:44:06;99357.53;;;15.21;48.98
26859;BME280;14429;48.346;16.338;2023-03-23T04:46:33;99360.94;;;13.78;46.49
26859;BME280;14429;48.346;16.338;2023-03-23T04:48:59;99360.09;;;14.46;50.16
26859;BME280;14429;48.346;16.338;2023-03-23T04:51:25;99363.28;;;14.88;49.61
26859;BME280;14429;48.346;16.338;2023-03-23T04:53:50;99364.16;;;14.98;49.22
26859;BME280;14429;48.346;16.338;2023-03-23T04:56:16;99352.53;;;14.88;49.09
26859;BME280;14429;48.346;16.338;2023-03-23T04:58:41;99355.66;;;15.03;48.92
26859;BME280;14429;48.346;16.338;2023-03-23T05:01:07;99365.88;;;15.18;48.82
26859;BME280;14429;48.346;16.338;2023-03-23T05:03:33;99359.66;;;15.27;48.41
26859;BME280;14429;48.346;16.338;2023-03-23T05:06:01;99354.69;;;15.32;48.25
26859;BME280;14429;48.346;16.338;2023-03-23T05:08:27;99361.75;;;15.33;48.27
26859;BME280;14429;48.346;16.338;2023-03-23T05:10:54;99360.47;;;15.37;48.15
26859;BME280;14429;48.346;16.338;2023-03-23T05:13:20;99358.50;;;15.38;48.11
26859;BME280;14429;48.346;16.338;2023-03-23T05:15:46;99364.56;;;15.40;47.85
26859;BME280;14429;48.346;16.338;2023-03-23T05:18:11;99368.94;;;15.41;47.84
26859;BME280;14429;48.346;16.338;2023-03-23T05:20:38;99365.28;;;15.42;47.81
26859;BME280;14429;48.346;16.338;2023-03-23T05:23:04;99368.66;;;15.44;47.90
26859;BME280;14429;48.346;16.338;2023-03-23T05:25:29;99376.31;;;15.39;47.77
26859;BME280;14429;48.346;16.338;2023-03-23T05:27:55;99389.91;;;15.29;48.21
26859;BME280;14429;48.346;16.338;2023-03-23T05:30:21;99375.91;;;15.35;48.08
26859;BME280;14429;48.346;16.338;2023-03-23T05:32:47;99372.63;;;15.40;47.64
26859;BME280;14429;48.346;16.338;2023-03-23T05:35:12;99379.41;;;15.44;47.76
26859;BME280;14429;48.346;16.338;2023-03-23T05:37:39;99386.06;;;15.40;47.72
26859;BME280;14429;48.346;16.338;2023-03-23T05:40:06;99392.47;;;14.54;47.94
26859;BME280;14429;48.346;16.338;2023-03-23T05:42:32;99388.16;;;14.90;48.91
26859;BME280;14429;48.346;16.338;2023-03-23T05:44:58;99391.59;;;15.11;48.39
26859;BME280;14429;48.346;16.338;2023-03-23T05:47:23;99394.72;;;15.16;48.38
26859;BME280;14429;48.346;16.338;2023-03-23T05:49:48;99389.03;;;15.19;48.16
26859;BME280;14429;48.346;16.338;2023-03-23T05:52:14;99389.81;;;14.73;47.77
26859;BME280;14429;48.346;16.338;2023-03-23T05:54:41;99397.63;;;14.94;48.67
26859;BME280;14429;48.346;16.338;2023-03-23T05:57:06;99394.94;;;15.04;48.58
26859;BME280;14429;48.346;16.338;2023-03-23T05:59:32;99400.16;;;14.96;48.57
26859;BME280;14429;48.346;16.338;2023-03-23T06:01:57;99398.38;;;15.06;48.03
26859;BME280;14429;48.346;16.338;2023-03-23T06:04:23;99402.91;;;15.05;48.60
26859;BME280;14429;48.346;16.338;2023-03-23T06:06:49;99397.66;;;15.22;48.04
26859;BME280;14429;48.346;16.338;2023-03-23T06:09:14;99396.97;;;15.30;47.84
26859;BME280;14429;48.346;16.338;2023-03-23T06:11:41;99402.06;;;15.33;47.71
26859;BME280;14429;48.346;16.338;2023-03-23T06:14:06;99403.47;;;15.37;47.62
26859;BME280;14429;48.346;16.338;2023-03-23T06:16:32;99400.66;;;15.38;47.60
26859;BME280;14429;48.346;16.338;2023-03-23T06:18:57;99403.47;;;15.37;47.44
26859;BME280;14429;48.346;16.338;2023-03-23T06:21:23;99403.19;;;15.39;47.40
26859;BME280;14429;48.346;16.338;2023-03-23T06:23:48;99406.72;;;15.40;47.56
26859;BME280;14429;48.346;16.338;2023-03-23T06:26:14;99408.28;;;15.42;47.31
26859;BME280;14429;48.346;16.338;2023-03-23T06:28:42;99407.84;;;15.37;47.63
26859;BME280;14429;48.346;16.338;2023-03-23T06:31:07;99401.19;;;15.41;47.32
26859;BME280;14429;48.346;16.338;2023-03-23T06:33:33;99410.25;;;15.40;47.43
26859;BME280;14429;48.346;16.338;2023-03-23T06:35:59;99406.00;;;15.47;47.13
26859;BME280;14429;48.346;16.338;2023-03-23T06:38:25;99416.19;;;15.44;47.11
26859;BME280;14429;48.346;16.338;2023-03-23T06:40:51;99413.66;;;15.61;46.81
26859;BME280;14429;48.346;16.338;2023-03-23T06:43:17;99408.84;;;15.64;46.78
26859;BME280;14429;48.346;16.338;2023-03-23T06:45:44;99405.72;;;15.69;46.61
26859;BME280;14429;48.346;16.338;2023-03-23T06:48:09;99406.56;;;15.69;46.56
26859;BME280;14429;48.346;16.338;2023-03-23T06:50:34;99409.41;;;15.68;46.55
26859;BME280;14429;48.346;16.338;2023-03-23T06:53:00;99413.66;;;15.61;46.62
26859;BME280;14429;48.346;16.338;2023-03-23T06:55:25;99419.03;;;15.24;48.20
26859;BME280;14429;48.346;16.338;2023-03-23T06:57:51;99420.44;;;15.46;47.14
26859;BME280;14429;48.346;16.338;2023-03-23T07:00:17;99425.53;;;15.49;46.94
26859;BME280;14429;48.346;16.338;2023-03-23T07:02:43;99422.84;;;15.49;47.05
26859;BME280;14429;48.346;16.338;2023-03-23T07:05:10;99426.66;;;15.56;46.85
26859;BME280;14429;48.346;16.338;2023-03-23T07:07:36;99424.38;;;15.52;46.88
26859;BME280;14429;48.346;16.338;2023-03-23T07:10:01;99449.56;;;15.51;47.13
26859;BME280;14429;48.346;16.338;2023-03-23T07:12:27;99443.78;;;15.55;46.88
26859;BME280;14429;48.346;16.338;2023-03-23T07:14:52;99444.19;;;15.51;46.87
26859;BME280;14429;48.346;16.338;2023-03-23T07:17:18;99446.31;;;15.29;47.79
26859;BME280;14429;48.346;16.338;2023-03-23T07:19:45;99450.03;;;14.80;49.72
26859;BME280;14429;48.346;16.338;2023-03-23T07:22:10;99444.56;;;14.52;51.10
26859;BME280;14429;48.346;16.338;2023-03-23T07:24:35;99434.47;;;14.74;50.22
26859;BME280;14429;48.346;16.338;2023-03-23T07:27:01;99436.38;;;14.53;51.33
26859;BME280;14429;48.346;16.338;2023-03-23T07:29:27;99448.50;;;14.96;48.76
26859;BME280;14429;48.346;16.338;2023-03-23T07:31:52;99448.56;;;15.14;48.08
26859;BME280;14429;48.346;16.338;2023-03-23T07:34:18;99455.97;;;14.92;51.13
26859;BME280;14429;48.346;16.338;2023-03-23T07:36:45;99438.47;;;14.98;51.05
26859;BME280;14429;48.346;16.338;2023-03-23T07:39:10;99435.34;;;14.83;53.28
26859;BME280;14429;48.346;16.338;2023-03-23T07:41:36;99429.13;;;14.92;49.69
26859;BME280;14429;48.346;16.338;2023-03-23T07:44:01;99448.06;;;15.00;49.24
26859;BME280;14429;48.346;16.338;2023-03-23T07:46:27;99437.66;;;15.07;48.44
26859;BME280;14429;48.346;16.338;2023-03-23T07:48:52;99435.44;;;15.21;47.98
26859;BME280;14429;48.346;16.338;2023-03-23T07:51:18;99445.88;;;15.33;47.63
26859;BME280;14429;48.346;16.338;2023-03-23T07:53:44;99443.09;;;15.35;47.68
26859;BME280;14429;48.346;16.338;2023-03-23T07:56:10;99449.31;;;15.35;47.51
26859;BME280;14429;48.346;16.338;2023-03-23T07:58:36;99453.25;;;15.40;47.40
26859;BME280;14429;48.346;16.338;2023-03-23T08:01:01;99441.94;;;15.37;47.48
26859;BME280;14429;48.346;16.338;2023-03-23T08:03:26;99456.22;;;15.37;47.82
26859;BME280;14429;48.346;16.338;2023-03-23T08:05:52;99456.94;;;15.39;47.26
26859;BME280;14429;48.346;16.338;2023-03-23T08:08:17;99453.97;;;15.24;49.11
26859;BME280;14429;48.346;16.338;2023-03-23T08:10:44;99447.88;;;15.22;49.14
26859;BME280;14429;48.346;16.338;2023-03-23T08:13:09;99455.44;;;14.98;50.54
26859;BME280;14429;48.346;16.338;2023-03-23T08:15:35;99453.81;;;15.25;47.96
26859;BME280;14429;48.346;16.338;2023-03-23T08:18:00;99442.78;;;15.28;47.77
26859;BME280;14429;48.346;16.338;2023-03-23T08:20:26;99448.06;;;15.00;50.64
26859;BME280;14429;48.346;16.338;2023-03-23T08:22:53;99451.00;;;15.27;48.17
26859;BME280;14429;48.346;16.338;2023-03-23T08:25:20;99437.72;;;15.35;50.29
26859;BME280;14429;48.346;16.338;2023-03-23T08:27:47;99447.31;;;15.46;47.61
26859;BME280;14429;48.346;16.338;2023-03-23T08:30:15;99451.56;;;15.58;48.73
26859;BME280;14429;48.346;16.338;2023-03-23T08:32:42;99437.69;;;15.72;50.24
26859;BME280;14429;48.346;16.338;2023-03-23T08:35:08;99440.78;;;15.77;47.73
26859;BME280;14429;48.346;16.338;2023-03-23T08:37:34;99458.84;;;15.93;50.18
26859;BME280;14429;48.346;16.338;2023-03-23T08:40:00;99450.94;;;15.92;47.33
26859;BME280;14429;48.346;16.338;2023-03-23T08:42:26;99448.25;;;16.11;49.46
26859;BME280;14429;48.346;16.338;2023-03-23T08:44:52;99442.28;;;16.07;46.69
26859;BME280;14429;48.346;16.338;2023-03-23T08:47:18;99449.81;;;16.13;48.60
26859;BME280;14429;48.346;16.338;2023-03-23T08:49:44;99450.63;;;16.23;48.62
26859;BME280;14429;48.346;16.338;2023-03-23T08:52:09;99459.13;;;16.28;46.95
26859;BME280;14429;48.346;16.338;2023-03-23T08:54:35;99450.16;;;16.37;47.03
26859;BME280;14429;48.346;16.338;2023-03-23T08:57:01;99458.16;;;16.55;49.01
26859;BME280;14429;48.346;16.338;2023-03-23T08:59:26;99445.50;;;16.65;45.69
26859;BME280;14429;48.346;16.338;2023-03-23T09:01:54;99450.81;;;16.48;47.87
26859;BME280;14429;48.346;16.338;2023-03-23T09:04:19;99444.13;;;17.14;48.59
26859;BME280;14429;48.346;16.338;2023-03-23T09:06:45;99443.41;;;17.12;47.20
26859;BME280;14429;48.346;16.338;2023-03-23T09:09:11;99437.72;;;17.15;45.49
26859;BME280;14429;48.346;16.338;2023-03-23T09:11:36;99436.47;;;17.27;47.02
26859;BME280;14429;48.346;16.338;2023-03-23T09:14:03;99439.41;;;17.85;46.70
26859;BME280;14429;48.346;16.338;2023-03-23T09:16:29;99433.75;;;17.96;46.49
26859;BME280;14429;48.346;16.338;2023-03-23T09:18:56;99438.59;;;18.09;44.77
26859;BME280;14429;48.346;16.338;2023-03-23T09:21:21;99438.88;;;17.99;45.47
26859;BME280;14429;48.346;16.338;2023-03-23T09:23:47;99434.72;;;17.95;44.53
26859;BME280;14429;48.346;16.338;2023-03-23T09:26:12;99445.22;;;17.98;45.84
26859;BME280;14429;48.346;16.338;2023-03-23T09:28:38;99434.31;;;17.82;43.18
26859;BME280;14429;48.346;16.338;2023-03-23T09:31:03;99432.91;;;18.70;45.21
26859;BME280;14429;48.346;16.338;2023-03-23T09:33:29;99432.63;;;18.23;42.23
26859;BME280;14429;48.346;16.338;2023-03-23T09:35:56;99431.94;;;18.21;42.29
26859;BME280;14429;48.346;16.338;2023-03-23T09:38:21;99425.38;;;18.57;43.31
26859;BME280;14429;48.346;16.338;2023-03-23T09:40:48;99431.91;;;18.46;41.76
26859;BME280;14429;48.346;16.338;2023-03-23T09:43:24;99426.50;;;17.96;42.81
26859;BME280;14429;48.346;16.338;2023-03-23T09:46:00;99425.59;;;18.30;42.97
26859;BME280;14429;48.346;16.338;2023-03-23T09:48:44;99429.13;;;18.31;43.73
26859;BME280;14429;48.346;16.338;2023-03-23T09:51:20;99428.03;;;18.16;41.91
26859;BME280;14429;48.346;16.338;2023-03-23T09:53:50;99428.31;;;18.63;42.58
26859;BME280;14429;48.346;16.338;2023-03-23T09:56:17;99435.41;;;18.39;40.96
26859;BME280;14429;48.346;16.338;2023-03-23T09:58:46;99427.78;;;18.60;43.51
26859;BME280;14429;48.346;16.338;2023-03-23T10:01:19;99428.91;;;18.49;42.60
26859;BME280;14429;48.346;16.338;2023-03-23T10:03:46;99419.44;;;18.20;42.16
26859;BME280;14429;48.346;16.338;2023-03-23T10:06:15;99413.63;;;18.33;42.87
26859;BME280;14429;48.346;16.338;2023-03-23T10:08:44;99406.06;;;18.36;45.17
26859;BME280;14429;48.346;16.338;2023-03-23T10:11:16;99412.31;;;18.11;42.76
26859;BME280;14429;48.346;16.338;2023-03-23T10:13:54;99402.38;;;18.45;45.47
26859;BME280;14429;48.346;16.338;2023-03-23T10:16:22;99402.06;;;18.48;45.51
26859;BME280;14429;48.346;16.338;2023-03-23T10:18:55;99395.63;;;18.82;45.05
26859;BME280;14429;48.346;16.338;2023-03-23T10:21:24;99399.31;;;18.40;45.56
26859;BME280;14429;48.346;16.338;2023-03-23T10:23:53;99400.25;;;17.81;42.27
26859;BME280;14429;48.346;16.338;2023-03-23T10:26:33;99400.44;;;18.05;43.53
26859;BME280;14429;48.346;16.338;2023-03-23T10:29:04;99388.66;;;18.71;46.38
26859;BME280;14429;48.346;16.338;2023-03-23T10:31:36;99395.34;;;18.60;45.33
26859;BME280;14429;48.346;16.338;2023-03-23T10:34:04;99384.56;;;18.60;44.90
26859;BME280;14429;48.346;16.338;2023-03-23T10:36:38;99381.03;;;19.08;44.31
26859;BME280;14429;48.346;16.338;2023-03-23T10:39:11;99371.53;;;18.88;42.85
26859;BME280;14429;48.346;16.338;2023-03-23T10:41:37;99377.72;;;18.81;44.46
26859;BME280;14429;48.346;16.338;2023-03-23T10:44:09;99376.63;;;18.25;44.17
26859;BME280;14429;48.346;16.338;2023-03-23T10:46:44;99369.59;;;18.32;44.83
26859;BME280;14429;48.346;16.338;2023-03-23T10:49:12;99373.69;;;18.44;44.60
26859;BME280;14429;48.346;16.338;2023-03-23T10:51:41;99367.75;;;18.40;42.59
26859;BME280;14429;48.346;16.338;2023-03-23T10:54:07;99369.13;;;18.85;44.39
26859;BME280;14429;48.346;16.338;2023-03-23T10:56:37;99365.72;;;18.83;44.09
26859;BME280;14429;48.346;16.338;2023-03-23T10:59:12;99357.00;;;18.97;41.43
26859;BME280;14429;48.346;16.338;2023-03-23T11:01:38;99358.06;;;19.12;43.57
26859;BME280;14429;48.346;16.338;2023-03-23T11:04:11;99355.38;;;19.43;43.24
26859;BME280;14429;48.346;16.338;2023-03-23T11:06:37;99346.59;;;19.49;43.15
26859;BME280;14429;48.346;16.338;2023-03-23T11:09:13;99350.91;;;18.95;40.88
26859;BME280;14429;48.346;16.338;2023-03-23T11:11:40;99353.88;;;19.33;42.33
26859;BME280;14429;48.346;16.338;2023-03-23T11:14:15;99351.28;;;19.00;41.38
26859;BME280;14429;48.346;16.338;2023-03-23T11:16:44;99338.63;;;19.24;42.85
26859;BME280;14429;48.346;16.338;2023-03-23T11:19:14;99333.91;;;19.81;42.31
26859;BME280;14429;48.346;16.338;2023-03-23T11:21:40;99326.13;;;19.39;40.67
26859;BME280;14429;48.346;16.338;2023-03-23T11:24:12;99334.25;;;19.31;42.75
26859;BME280;14429;48.346;16.338;2023-03-23T11:26:37;99332.03;;;19.58;42.98
26859;BME280;14429;48.346;16.338;2023-03-23T11:29:05;99327.31;;;19.60;41.56
26859;BME280;14429;48.346;16.338;2023-03-23T11:31:36;99331.59;;;18.82;40.39
26859;BME280;14429;48.346;16.338;2023-03-23T11:34:04;99320.53;;;18.44;40.95
26859;BME280;14429;48.346;16.338;2023-03-23T11:36:36;99320.38;;;18.54;41.48
26859;BME280;14429;48.346;16.338;2023-03-23T11:39:03;99319.56;;;18.20;41.64
26859;BME280;14429;48.346;16.338;2023-03-23T11:41:44;99309.00;;;18.35;42.73
26859;BME280;14429;48.346;16.338;2023-03-23T11:44:11;99316.53;;;17.98;42.74
26859;BME280;14429;48.346;16.338;2023-03-23T11:46:41;99311.28;;;18.55;43.27
26859;BME280;14429;48.346;16.338;2023-03-23T11:49:12;99306.03;;;18.12;41.55
26859;BME280;14429;48.346;16.338;2023-03-23T11:51:42;99310.31;;;17.48;43.08
26859;BME280;14429;48.346;16.338;2023-03-23T11:54:17;99307.59;;;17.23;43.58
26859;BME280;14429;48.346;16.338;2023-03-23T11:56:46;99314.94;;;17.38;43.28
26859;BME280;14429;48.346;16.338;2023-03-23T11:59:13;99307.03;;;18.11;43.82
26859;BME280;14429;48.346;16.338;2023-03-23T12:01:47;99300.88;;;18.27;43.21
26859;BME280;14429;48.346;16.338;2023-03-23T12:04:40;99304.41;;;17.69;43.27
26859;BME280;14429;48.346;16.338;2023-03-23T12:07:29;99300.31;;;17.90;44.64
26859;BME280;14429;48.346;16.338;2023-03-23T12:10:02;99290.47;;;17.99;43.61
26859;BME280;14429;48.346;16.338;2023-03-23T12:12:38;99286.22;;;18.37;44.18
26859;BME280;14429;48.346;16.338;2023-03-23T12:15:11;99296.25;;;17.36;43.68
26859;BME280;14429;48.346;16.338;2023-03-23T12:17:46;99297.19;;;17.53;44.74
26859;BME280;14429;48.346;16.338;2023-03-23T12:20:28;99297.66;;;17.06;44.14
26859;BME280;14429;48.346;16.338;2023-03-23T12:23:07;99304.28;;;17.28;44.14
26859;BME280;14429;48.346;16.338;2023-03-23T12:25:48;99294.72;;;17.84;45.32
26859;BME280;14429;48.346;16.338;2023-03-23T12:28:25;99292.72;;;18.60;44.02
26859;BME280;14429;48.346;16.338;2023-03-23T12:30:57;99288.97;;;18.04;42.42
26859;BME280;14429;48.346;16.338;2023-03-23T12:33:33;99274.72;;;18.35;42.33
26859;BME280;14429;48.346;16.338;2023-03-23T12:36:09;99278.53;;;17.84;42.63
26859;BME280;14429;48.346;16.338;2023-03-23T12:38:56;99280.69;;;18.06;43.06
26859;BME280;14429;48.346;16.338;2023-03-23T12:41:28;99281.41;;;17.90;42.33
26859;BME280;14429;48.346;16.338;2023-03-23T12:43:59;99284.97;;;17.58;43.50
26859;BME280;14429;48.346;16.338;2023-03-23T12:46:46;99286.09;;;17.55;43.82
26859;BME280;14429;48.346;16.338;2023-03-23T12:49:19;99275.94;;;18.00;43.42
26859;BME280;14429;48.346;16.338;2023-03-23T12:51:51;99267.34;;;18.45;43.46
26859;BME280;14429;48.346;16.338;2023-03-23T12:54:23;99268.94;;;17.89;42.39
26859;BME280;14429;48.346;16.338;2023-03-23T12:56:56;99264.50;;;18.06;42.79
26859;BME280;14429;48.346;16.338;2023-03-23T12:59:30;99268.25;;;17.54;43.31